Time;durP1;ratioP1;P1;durP2;ratioP2;P2;SDS_P1;SDS_P2;PMS_P1;PMS_P2;Temp;Humidity;BMP_temperature;BMP_pressure;BME280_temperature;BME280_humidity;BME280_pressure;Samples;Min_cycle;Max_cycle;Signal;HPM_P1;HPM_P2
2022/12/05 00:02:21;;;;;;;86.10;49.58;;;0.10;99.90;;;;;;5071939;28;20145;-76
2022/12/05 00:04:47;;;;;;;72.63;45.33;;;0.10;99.90;;;;;;5062037;28;20067;-76
2022/12/05 00:07:13;;;;;;;76.55;48.00;;;0.10;99.90;;;;;;5067401;28;20428;-76
2022/12/05 00:09:39;;;;;;;78.10;45.70;;;0.10;99.90;;;;;;5064348;28;20024;-76
2022/12/05 00:12:05;;;;;;;77.93;46.45;;;0.10;99.90;;;;;;5077191;28;20493;-76
2022/12/05 00:14:30;;;;;;;71.97;42.78;;;0.10;99.90;;;;;;5069891;28;20028;-76
2022/12/05 00:16:56;;;;;;;65.70;43.30;;;0.10;99.90;;;;;;5069565;28;20039;-76
2022/12/05 00:19:22;;;;;;;63.80;40.55;;;0.00;99.90;;;;;;5068690;28;20025;-76
2022/12/05 00:21:48;;;;;;;66.63;41.40;;;0.10;99.90;;;;;;5068985;28;20032;-76
2022/12/05 00:24:15;;;;;;;68.32;40.38;;;0.10;99.90;;;;;;5069001;28;20047;-75
2022/12/05 00:26:41;;;;;;;65.03;43.88;;;0.10;99.90;;;;;;5073984;28;20024;-75
2022/12/05 00:29:07;;;;;;;65.47;43.47;;;0.00;99.90;;;;;;5067237;28;20057;-75
2022/12/05 00:31:33;;;;;;;62.00;40.30;;;0.10;99.90;;;;;;5063773;28;20496;-75
2022/12/05 00:34:00;;;;;;;65.38;41.75;;;0.10;99.90;;;;;;5058500;28;20048;-75
2022/12/05 00:36:29;;;;;;;69.10;42.38;;;0.00;99.90;;;;;;5073751;28;20052;-75
2022/12/05 00:38:57;;;;;;;63.47;40.60;;;0.10;99.90;;;;;;5066720;28;20058;-75
2022/12/05 00:41:25;;;;;;;63.35;39.40;;;0.10;99.90;;;;;;5077649;28;20409;-75
2022/12/05 00:43:51;;;;;;;60.60;39.55;;;0.10;99.90;;;;;;5065000;28;20400;-75
2022/12/05 00:46:20;;;;;;;60.40;38.10;;;0.00;99.90;;;;;;5068362;28;20043;-75
2022/12/05 00:48:47;;;;;;;55.72;38.15;;;0.00;99.90;;;;;;5070606;28;20096;-75
2022/12/05 00:51:14;;;;;;;64.70;37.88;;;0.00;99.90;;;;;;5069781;28;20024;-75
2022/12/05 00:53:40;;;;;;;60.67;38.40;;;-0.10;99.90;;;;;;5065686;28;20029;-75
2022/12/05 00:56:12;;;;;;;63.58;37.80;;;0.00;99.90;;;;;;5070528;28;20408;-76
2022/12/05 00:58:38;;;;;;;59.10;36.90;;;-0.10;99.90;;;;;;5069924;28;20397;-76
2022/12/05 01:01:10;;;;;;;56.90;36.03;;;-0.10;99.90;;;;;;5074710;28;20038;-76
2022/12/05 01:03:36;;;;;;;56.30;36.38;;;-0.10;99.90;;;;;;5061090;28;20017;-76
2022/12/05 01:06:01;;;;;;;55.35;36.75;;;-0.20;99.90;;;;;;5067467;28;20103;-76
2022/12/05 01:08:27;;;;;;;55.60;35.63;;;-0.20;99.90;;;;;;5059098;28;20059;-76
2022/12/05 01:10:55;;;;;;;53.55;34.92;;;-0.20;99.90;;;;;;5067436;28;20131;-76
2022/12/05 01:13:22;;;;;;;58.92;35.05;;;-0.20;99.90;;;;;;5073665;28;20415;-76
2022/12/05 01:15:47;;;;;;;50.22;35.58;;;-0.20;99.90;;;;;;5066237;28;20028;-77
2022/12/05 01:18:13;;;;;;;62.15;37.97;;;-0.20;99.90;;;;;;5070400;28;20028;-76
2022/12/05 01:20:41;;;;;;;57.47;36.95;;;-0.20;99.90;;;;;;5069124;28;20032;-76
2022/12/05 01:23:07;;;;;;;61.25;37.90;;;-0.20;99.90;;;;;;5069098;28;20025;-76
2022/12/05 01:25:33;;;;;;;62.65;37.33;;;-0.20;99.90;;;;;;5067809;28;20044;-76
2022/12/05 01:27:59;;;;;;;52.30;37.13;;;-0.20;99.90;;;;;;5078981;28;20095;-76
2022/12/05 01:30:25;;;;;;;57.95;36.28;;;-0.20;99.90;;;;;;5067916;28;20036;-76
2022/12/05 01:32:50;;;;;;;53.53;35.13;;;-0.30;99.90;;;;;;5070319;28;20028;-76
2022/12/05 01:35:16;;;;;;;57.08;36.92;;;-0.30;99.90;;;;;;5064763;28;20032;-76
2022/12/05 01:37:42;;;;;;;60.63;38.38;;;-0.30;99.90;;;;;;5071700;28;20009;-76
2022/12/05 01:40:08;;;;;;;58.58;37.70;;;-0.30;99.90;;;;;;5069551;28;20503;-76
2022/12/05 01:42:34;;;;;;;59.83;37.85;;;-0.30;99.90;;;;;;5071595;28;20440;-77
2022/12/05 01:45:05;;;;;;;62.45;39.55;;;-0.30;99.90;;;;;;5063030;28;20032;-76
2022/12/05 01:47:32;;;;;;;;;;;-0.30;99.90;;;;;;5061404;28;20013;-77
2022/12/05 01:49:59;;;;;;;66.03;39.05;;;-0.30;99.90;;;;;;5065817;28;19924;-76
2022/12/05 01:52:28;;;;;;;66.88;37.60;;;-0.20;99.90;;;;;;5073563;28;20575;-76
2022/12/05 01:54:58;;;;;;;57.10;37.35;;;-0.30;99.90;;;;;;5069460;28;20037;-77
2022/12/05 01:57:25;;;;;;;60.88;37.33;;;-0.30;99.90;;;;;;5070566;28;20513;-76
2022/12/05 01:59:57;;;;;;;59.60;37.33;;;-0.30;99.90;;;;;;5068265;28;20090;-76
2022/12/05 02:02:23;;;;;;;69.43;38.35;;;-0.30;99.90;;;;;;5074980;28;20048;-76
2022/12/05 02:05:15;;;;;;;66.38;39.60;;;-0.40;99.90;;;;;;5069106;28;20033;-76
2022/12/05 02:07:42;;;;;;;70.57;39.50;;;-0.30;99.90;;;;;;5074737;28;20021;-76
2022/12/05 02:10:09;;;;;;;67.40;39.38;;;-0.30;99.90;;;;;;5070076;28;20025;-77
2022/12/05 02:12:36;;;;;;;65.18;39.22;;;-0.30;99.90;;;;;;5064676;28;20025;-77
2022/12/05 02:15:37;;;;;;;68.22;37.63;;;-0.30;99.90;;;;;;5066281;28;20025;-77
2022/12/05 02:18:21;;;;;;;64.78;36.88;;;-0.30;99.90;;;;;;5069044;28;20021;-76
2022/12/05 02:20:47;;;;;;;61.05;35.88;;;-0.40;99.90;;;;;;5071242;28;20036;-76
2022/12/05 02:23:32;;;;;;;56.90;35.55;;;-0.40;99.90;;;;;;5074658;28;20092;-76
2022/12/05 02:26:13;;;;;;;61.17;37.85;;;-0.40;99.90;;;;;;5065812;28;20501;-76
2022/12/05 02:29:02;;;;;;;59.83;37.03;;;-0.40;99.90;;;;;;5063507;28;20108;-76
2022/12/05 02:31:33;;;;;;;61.15;36.42;;;-0.50;99.90;;;;;;5058201;28;20033;-76
2022/12/05 02:34:22;;;;;;;59.25;38.22;;;-0.50;99.90;;;;;;5070701;28;20020;-76
2022/12/05 02:37:03;;;;;;;67.18;38.00;;;-0.40;99.90;;;;;;5072358;28;20084;-76
2022/12/05 02:39:53;;;;;;;60.72;36.88;;;-0.40;99.90;;;;;;5071634;28;20035;-76
2022/12/05 02:42:35;;;;;;;63.00;38.75;;;-0.50;99.90;;;;;;5089845;28;20408;-76
2022/12/05 02:45:13;;;;;;;56.88;34.22;;;-0.40;99.90;;;;;;5069583;28;20119;-76
2022/12/05 02:47:47;;;;;;;56.33;35.33;;;-0.50;99.90;;;;;;5073994;28;20043;-77
2022/12/05 02:50:18;;;;;;;60.05;37.53;;;-0.50;99.90;;;;;;5073486;28;20104;-77
2022/12/05 02:52:47;;;;;;;63.53;39.00;;;-0.50;99.90;;;;;;5075314;28;20476;-77
2022/12/05 02:55:15;;;;;;;51.78;34.65;;;-0.50;99.90;;;;;;5070844;28;20369;-77
2022/12/05 02:57:44;;;;;;;58.55;36.22;;;-0.50;99.90;;;;;;5075372;28;20033;-77
2022/12/05 03:00:11;;;;;;;63.00;39.33;;;-0.60;99.90;;;;;;5071065;28;20050;-77
2022/12/05 03:02:40;;;;;;;62.40;38.42;;;-0.60;99.90;;;;;;5075309;28;20028;-77
2022/12/05 03:05:37;;;;;;;62.50;38.03;;;-0.60;99.90;;;;;;5071731;28;20047;-77
2022/12/05 03:08:07;;;;;;;55.88;34.17;;;-0.60;99.90;;;;;;5070926;28;20024;-76
2022/12/05 03:10:37;;;;;;;58.17;35.73;;;-0.60;99.90;;;;;;5069431;28;20009;-76
2022/12/05 03:13:12;;;;;;;60.42;37.42;;;-0.60;99.90;;;;;;5075289;28;20281;-76
2022/12/05 03:15:44;;;;;;;61.83;38.65;;;-0.60;99.90;;;;;;5067622;28;20037;-77
2022/12/05 03:18:24;;;;;;;57.00;37.17;;;-0.50;99.90;;;;;;5072683;28;20028;-76
2022/12/05 03:21:07;;;;;;;63.90;37.42;;;-0.50;99.90;;;;;;5082082;28;20154;-76
2022/12/05 03:23:48;;;;;;;57.97;36.05;;;-0.50;99.90;;;;;;5063982;28;20110;-76
2022/12/05 03:26:16;;;;;;;;;;;-0.60;99.90;;;;;;5072654;28;20056;-77
2022/12/05 03:29:12;;;;;;;58.75;36.45;;;-0.60;99.90;;;;;;5062127;28;20552;-76
2022/12/05 03:32:03;;;;;;;55.25;34.38;;;-0.60;99.90;;;;;;5061874;28;20028;-76
2022/12/05 03:34:35;;;;;;;52.22;33.08;;;-0.60;99.90;;;;;;5064669;28;20028;-76
2022/12/05 03:37:09;;;;;;;57.70;34.63;;;-0.60;99.90;;;;;;5069897;28;20025;-77
2022/12/05 03:39:38;;;;;;;60.55;36.70;;;-0.60;99.90;;;;;;5073716;28;20032;-76
2022/12/05 03:42:13;;;;;;;52.13;35.38;;;-0.60;99.90;;;;;;5071065;28;20044;-76
2022/12/05 03:44:41;;;;;;;58.95;35.30;;;-0.60;99.90;;;;;;5073826;28;20042;-76
2022/12/05 03:47:16;;;;;;;51.58;32.25;;;-0.60;99.90;;;;;;5085560;28;20453;-76
2022/12/05 03:49:50;;;;;;;49.28;31.83;;;-0.70;99.90;;;;;;5070949;28;20632;-77
2022/12/05 03:52:22;;;;;;;50.78;32.40;;;-0.80;99.90;;;;;;5072608;28;20017;-77
2022/12/05 03:55:05;;;;;;;51.45;33.00;;;-0.80;99.90;;;;;;5072041;28;20074;-77
2022/12/05 03:57:44;;;;;;;49.50;32.78;;;-0.90;99.90;;;;;;5073335;28;20059;-77
2022/12/05 04:00:22;;;;;;;43.25;29.80;;;-0.80;99.90;;;;;;5069431;28;20025;-76
2022/12/05 04:03:16;;;;;;;48.90;30.65;;;-0.90;99.90;;;;;;5067242;28;20033;-76
2022/12/05 04:05:45;;;;;;;46.35;31.05;;;-0.90;99.90;;;;;;5065144;28;20051;-76
2022/12/05 04:08:19;;;;;;;47.63;30.02;;;-0.90;99.90;;;;;;5063367;28;20029;-76
2022/12/05 04:10:49;;;;;;;44.90;29.17;;;-0.90;99.90;;;;;;5066397;28;20052;-77
2022/12/05 04:13:17;;;;;;;42.80;28.83;;;-0.90;99.90;;;;;;5075221;28;20040;-77
2022/12/05 04:18:55;;;;;;;41.40;30.02;;;-0.80;99.90;;;;;;5065407;28;20043;-77
2022/12/05 04:21:37;;;;;;;44.53;31.85;;;-0.80;99.90;;;;;;5070128;28;20028;-77
2022/12/05 04:27:16;;;;;;;40.15;29.20;;;-0.90;99.90;;;;;;5061227;28;20052;-77
2022/12/05 04:29:50;;;;;;;44.08;30.33;;;-0.80;99.90;;;;;;5063614;28;20033;-77
2022/12/05 04:32:19;;;;;;;41.00;29.25;;;-0.80;99.90;;;;;;5064048;28;20486;-77
2022/12/05 04:34:54;;;;;;;40.15;29.10;;;-0.80;99.90;;;;;;5063526;28;20025;-77
2022/12/05 04:37:23;;;;;;;43.65;29.63;;;-0.80;99.90;;;;;;5070023;28;20024;-77
2022/12/05 04:39:56;;;;;;;38.50;28.25;;;-0.90;99.90;;;;;;5063708;28;20017;-76
2022/12/05 04:42:26;;;;;;;43.20;30.20;;;-0.90;99.90;;;;;;5075910;28;20029;-77
2022/12/05 04:44:54;;;;;;;;;;;-0.90;99.90;;;;;;5061109;28;20029;-77
2022/12/05 04:47:25;;;;;;;44.85;28.48;;;-0.90;99.90;;;;;;5073401;28;19966;-77
2022/12/05 04:49:54;;;;;;;39.25;28.85;;;-0.90;99.90;;;;;;5066930;28;20074;-77
2022/12/05 04:52:21;;;;;;;38.10;28.55;;;-0.90;99.90;;;;;;5069990;28;20489;-77
2022/12/05 04:55:00;;;;;;;40.60;29.45;;;-0.90;99.90;;;;;;5070856;28;20024;-77
2022/12/05 04:57:47;;;;;;;50.05;30.00;;;-0.90;99.90;;;;;;5068342;28;20099;-77
2022/12/05 05:00:13;;;;;;;41.28;29.35;;;-0.90;99.90;;;;;;5067413;28;20489;-77
2022/12/05 05:02:50;;;;;;;42.40;29.20;;;-0.90;99.90;;;;;;5070805;28;20035;-77
2022/12/05 05:05:18;;;;;;;40.17;27.63;;;-0.80;99.90;;;;;;5061279;28;20024;-77
2022/12/05 05:07:53;;;;;;;39.70;29.15;;;-0.80;99.90;;;;;;5058031;28;20068;-77
2022/12/05 05:10:27;;;;;;;42.30;27.10;;;-0.90;99.90;;;;;;5065328;28;20393;-77
2022/12/05 05:12:53;;;;;;;42.55;29.20;;;-0.90;99.90;;;;;;5063067;28;20567;-77
2022/12/05 05:15:19;;;;;;;38.15;25.80;;;-0.90;99.90;;;;;;5061286;28;20159;-77
2022/12/05 05:17:44;;;;;;;42.45;28.15;;;-0.90;99.90;;;;;;5071091;28;20056;-77
2022/12/05 05:20:23;;;;;;;38.67;26.40;;;-1.00;99.90;;;;;;5065764;28;20075;-77
2022/12/05 05:22:50;;;;;;;42.08;28.30;;;-1.00;99.90;;;;;;5071008;28;20028;-77
2022/12/05 05:25:16;;;;;;;36.58;26.13;;;-1.00;99.90;;;;;;5063555;28;20055;-77
2022/12/05 05:27:42;;;;;;;32.55;25.30;;;-1.00;99.90;;;;;;5062161;28;20028;-77
2022/12/05 05:30:08;;;;;;;37.70;25.73;;;-1.10;99.90;;;;;;5065946;28;20150;-77
2022/12/05 05:32:34;;;;;;;39.30;28.85;;;-1.10;99.90;;;;;;5061270;28;20078;-77
2022/12/05 05:35:00;;;;;;;37.08;27.35;;;-1.10;99.90;;;;;;5061791;28;20044;-77
2022/12/05 05:37:25;;;;;;;38.65;26.50;;;-1.10;99.90;;;;;;5069351;28;20468;-77
2022/12/05 05:39:51;;;;;;;34.35;25.67;;;-1.10;99.90;;;;;;5068942;28;20044;-77
2022/12/05 05:42:17;;;;;;;42.63;27.40;;;-1.10;99.90;;;;;;5067611;28;20024;-77
2022/12/05 05:44:43;;;;;;;36.17;25.63;;;-1.10;99.90;;;;;;5069461;28;20392;-77
2022/12/05 05:47:09;;;;;;;36.30;27.17;;;-1.10;99.90;;;;;;5069082;28;20031;-77
2022/12/05 05:49:34;;;;;;;41.60;27.40;;;-1.20;99.90;;;;;;5064189;28;20032;-77
2022/12/05 05:52:00;;;;;;;36.28;26.63;;;-1.20;99.90;;;;;;5069599;28;20052;-77
2022/12/05 05:54:26;;;;;;;41.03;29.33;;;-1.20;99.90;;;;;;5066316;28;20032;-77
2022/12/05 05:56:52;;;;;;;38.40;27.35;;;-1.10;99.90;;;;;;5068144;28;20013;-77
2022/12/05 05:59:17;;;;;;;41.55;27.05;;;-1.20;99.90;;;;;;5061897;28;20549;-77
2022/12/05 06:01:43;;;;;;;41.00;27.50;;;-1.20;99.90;;;;;;5067715;28;20039;-78
2022/12/05 06:04:09;;;;;;;37.22;27.63;;;-1.20;99.90;;;;;;5059755;28;20025;-77
2022/12/05 06:06:35;;;;;;;39.53;27.05;;;-1.20;99.90;;;;;;5066761;28;20028;-77
2022/12/05 06:09:01;;;;;;;42.38;28.27;;;-1.30;99.90;;;;;;5061262;28;20059;-77
2022/12/05 06:11:27;;;;;;;40.38;27.27;;;-1.20;99.90;;;;;;5069804;28;20016;-77
2022/12/05 06:14:01;;;;;;;42.42;27.67;;;-1.20;99.90;;;;;;5070273;28;20032;-77
2022/12/05 06:16:28;;;;;;;43.10;28.02;;;-1.30;99.90;;;;;;5060008;28;20027;-77
2022/12/05 06:18:54;;;;;;;41.55;29.88;;;-1.30;99.90;;;;;;5067847;28;20375;-77
2022/12/05 06:21:21;;;;;;;41.63;28.67;;;-1.20;99.90;;;;;;5068259;28;20040;-77
2022/12/05 06:23:49;;;;;;;43.95;30.23;;;-1.20;99.90;;;;;;5066930;28;20044;-77
2022/12/05 06:26:18;;;;;;;39.20;28.38;;;-1.30;99.90;;;;;;5024110;28;1327054;-77
2022/12/05 06:28:44;;;;;;;39.45;25.83;;;-1.30;99.90;;;;;;5058925;28;20057;-77
2022/12/05 06:31:16;;;;;;;38.78;26.58;;;-1.40;99.90;;;;;;5068344;28;20029;-77
2022/12/05 06:33:42;;;;;;;35.53;26.88;;;-1.40;99.90;;;;;;5055136;28;20120;-77
2022/12/05 06:36:12;;;;;;;35.03;25.75;;;-1.40;99.90;;;;;;5064877;28;20099;-77
2022/12/05 06:38:38;;;;;;;36.00;25.80;;;-1.40;99.90;;;;;;5065620;28;20029;-77
2022/12/05 06:41:10;;;;;;;41.95;27.13;;;-1.40;99.90;;;;;;5066898;28;20025;-77
2022/12/05 06:43:35;;;;;;;35.53;25.42;;;-1.40;99.90;;;;;;5071208;28;20035;-77
2022/12/05 06:46:06;;;;;;;34.03;24.83;;;-1.40;99.90;;;;;;5068605;28;20409;-77
2022/12/05 06:48:32;;;;;;;;;;;-1.50;99.90;;;;;;5069712;28;20021;-77
2022/12/05 06:50:57;;;;;;;31.15;23.70;;;-1.40;99.90;;;;;;5065454;28;19914;-77
2022/12/05 06:53:23;;;;;;;36.97;25.23;;;-1.40;99.90;;;;;;5066864;28;20029;-77
2022/12/05 06:56:00;;;;;;;39.72;25.23;;;-1.40;99.90;;;;;;5062140;28;20378;-77
2022/12/05 06:58:27;;;;;;;36.75;24.15;;;-1.40;99.90;;;;;;5064348;28;20111;-76
2022/12/05 07:03:37;;;;;;;33.75;22.42;;;-1.40;99.90;;;;;;5061058;28;20025;-77
2022/12/05 07:06:05;;;;;;;40.13;24.38;;;-1.40;99.90;;;;;;5067117;28;20071;-77
2022/12/05 07:08:32;;;;;;;32.50;23.50;;;-1.40;99.90;;;;;;5059578;28;20016;-77
2022/12/05 07:10:58;;;;;;;34.92;24.35;;;-1.40;99.90;;;;;;5069713;28;20028;-77
2022/12/05 07:13:24;;;;;;;32.13;23.40;;;-1.40;99.90;;;;;;5073344;28;20028;-77
2022/12/05 07:15:50;;;;;;;28.30;22.35;;;-1.40;99.90;;;;;;5061350;28;20021;-77
2022/12/05 07:18:17;;;;;;;29.83;21.40;;;-1.40;99.90;;;;;;5069219;28;20094;-77
2022/12/05 07:20:43;;;;;;;33.00;21.88;;;-1.40;99.90;;;;;;5067097;28;20029;-77
2022/12/05 07:23:10;;;;;;;33.80;23.48;;;-1.40;99.90;;;;;;5068229;28;20041;-76
2022/12/05 07:25:42;;;;;;;39.92;26.00;;;-1.30;99.90;;;;;;5067796;28;20531;-77
2022/12/05 07:28:08;;;;;;;39.50;27.05;;;-1.30;99.90;;;;;;5071589;28;20033;-79
2022/12/05 07:30:34;;;;;;;41.50;27.70;;;-1.30;99.90;;;;;;5072882;28;20017;-79
2022/12/05 07:33:00;;;;;;;41.83;29.27;;;-1.30;99.90;;;;;;5076537;28;20055;-79
2022/12/05 07:35:26;;;;;;;41.65;25.00;;;-1.40;99.90;;;;;;5074434;28;20017;-77
2022/12/05 07:37:52;;;;;;;91.47;51.97;;;-1.30;99.90;;;;;;5065462;28;20028;-77
2022/12/05 07:40:18;;;;;;;63.78;33.50;;;-1.20;99.90;;;;;;5070772;28;20368;-78
2022/12/05 07:42:47;;;;;;;109.10;76.95;;;-1.20;99.90;;;;;;5068369;28;20029;-76
2022/12/05 07:45:13;;;;;;;39.20;28.35;;;-1.30;99.90;;;;;;5072580;28;20009;-76
2022/12/05 07:47:39;;;;;;;46.63;28.17;;;-1.20;99.90;;;;;;5072313;28;20112;-76
2022/12/05 07:50:06;;;;;;;37.05;27.70;;;-1.20;99.90;;;;;;5064365;28;20036;-77
2022/12/05 07:52:31;;;;;;;42.92;31.08;;;-1.10;99.90;;;;;;5077674;28;20516;-77
2022/12/05 07:54:57;;;;;;;45.35;31.17;;;-1.10;99.90;;;;;;5067918;28;20025;-76
2022/12/05 07:57:23;;;;;;;44.58;31.42;;;-1.00;99.90;;;;;;5077178;28;20024;-77
2022/12/05 07:59:49;;;;;;;44.63;29.70;;;-1.00;99.90;;;;;;5071202;28;20031;-77
2022/12/05 08:02:15;;;;;;;46.08;28.83;;;-0.90;99.90;;;;;;5068557;28;20027;-77
2022/12/05 08:04:40;;;;;;;41.00;28.73;;;-0.90;99.90;;;;;;5070944;28;20032;-77
2022/12/05 08:07:09;;;;;;;48.42;33.90;;;-0.90;99.90;;;;;;5068115;28;20029;-77
2022/12/05 08:09:35;;;;;;;65.90;48.28;;;-0.80;99.90;;;;;;5069740;28;20021;-77
2022/12/05 08:12:01;;;;;;;50.40;36.22;;;-0.80;99.90;;;;;;5059904;28;20452;-77
2022/12/05 08:14:27;;;;;;;43.85;30.75;;;-0.70;99.90;;;;;;5061390;28;20025;-77
2022/12/05 08:16:53;;;;;;;45.00;32.10;;;-0.70;99.90;;;;;;5074468;28;20024;-77
2022/12/05 08:19:19;;;;;;;42.67;29.70;;;-0.70;99.90;;;;;;5063929;28;20017;-77
2022/12/05 08:21:45;;;;;;;44.38;29.83;;;-0.60;99.90;;;;;;5065440;28;20636;-77
2022/12/05 08:24:11;;;;;;;44.78;29.15;;;-0.60;99.90;;;;;;5060924;28;20078;-77
2022/12/05 08:26:38;;;;;;;60.78;41.53;;;-0.50;99.90;;;;;;5067154;28;20045;-77
2022/12/05 08:29:13;;;;;;;58.42;39.92;;;-0.40;99.90;;;;;;5063471;28;20040;-77
2022/12/05 08:31:43;;;;;;;58.38;39.60;;;-0.40;99.90;;;;;;5073721;28;20024;-77
2022/12/05 08:34:11;;;;;;;54.65;39.63;;;-0.30;99.90;;;;;;5071670;28;20028;-77
2022/12/05 08:36:38;;;;;;;58.85;40.20;;;-0.30;99.90;;;;;;5074511;28;20021;-77
2022/12/05 08:39:05;;;;;;;66.55;40.95;;;-0.20;99.90;;;;;;5069882;28;20477;-77
2022/12/05 08:41:32;;;;;;;63.13;41.00;;;-0.10;99.90;;;;;;5076170;28;20024;-77
2022/12/05 08:44:04;;;;;;;83.78;51.72;;;-0.10;99.90;;;;;;5070311;28;20025;-77
2022/12/05 08:46:35;;;;;;;86.53;52.00;;;0.00;99.90;;;;;;5066997;28;20020;-77
2022/12/05 08:49:02;;;;;;;64.80;41.30;;;0.10;99.90;;;;;;5071850;28;20036;-78
2022/12/05 08:51:28;;;;;;;61.72;42.00;;;0.30;99.90;;;;;;5074962;28;20024;-78
2022/12/05 08:53:55;;;;;;;57.08;38.05;;;0.30;99.90;;;;;;5071958;28;20025;-77
2022/12/05 08:56:21;;;;;;;47.85;34.65;;;0.40;99.90;;;;;;5073355;28;20024;-78
2022/12/05 08:58:47;;;;;;;60.25;38.25;;;0.50;99.90;;;;;;5069444;28;20020;-77
2022/12/05 09:01:18;;;;;;;55.33;37.88;;;0.60;99.90;;;;;;5072302;28;20020;-77
2022/12/05 09:03:45;;;;;;;55.35;37.78;;;0.70;99.90;;;;;;5069079;28;20082;-77
2022/12/05 09:06:14;;;;;;;54.55;40.38;;;0.70;99.90;;;;;;5072695;28;20074;-77
2022/12/05 09:08:41;;;;;;;55.92;41.55;;;0.80;99.90;;;;;;5070502;28;20029;-77
2022/12/05 09:11:11;;;;;;;59.55;45.45;;;0.90;99.90;;;;;;5071109;28;20032;-77
2022/12/05 09:13:37;;;;;;;48.57;34.97;;;1.00;99.90;;;;;;5071948;28;20025;-77
2022/12/05 09:16:11;;;;;;;47.10;33.70;;;1.30;99.90;;;;;;5072174;28;20277;-76
2022/12/05 09:18:37;;;;;;;62.08;45.88;;;1.40;99.90;;;;;;5068654;28;20020;-77
2022/12/05 09:21:18;;;;;;;47.03;34.05;;;1.50;99.90;;;;;;5067614;28;20036;-76
2022/12/05 09:23:44;;;;;;;164.05;97.00;;;1.60;99.90;;;;;;5065862;28;20035;-77
2022/12/05 09:26:12;;;;;;;84.00;51.63;;;1.60;99.90;;;;;;5071417;28;20048;-77
2022/12/05 09:28:38;;;;;;;132.60;75.32;;;1.60;99.90;;;;;;5069609;28;20032;-77
2022/12/05 09:31:07;;;;;;;61.95;41.10;;;1.60;99.90;;;;;;5072995;28;20045;-77
2022/12/05 09:33:35;;;;;;;142.05;74.35;;;1.70;99.90;;;;;;5073713;28;20033;-77
2022/12/05 09:36:10;;;;;;;80.90;50.08;;;1.70;99.90;;;;;;5072155;28;20021;-77
2022/12/05 09:38:36;;;;;;;59.38;40.75;;;1.70;99.90;;;;;;5072621;28;20016;-77
2022/12/05 09:42:03;;;;;;;31.30;23.80;;;1.80;99.90;;;;;;5073051;28;20032;-77
2022/12/05 09:44:38;;;;;;;31.85;23.38;;;2.00;99.90;;;;;;5071578;28;20033;-77
2022/12/05 09:47:22;;;;;;;23.38;20.00;;;2.20;99.90;;;;;;5069163;28;20045;-77
2022/12/05 09:50:01;;;;;;;26.05;20.20;;;2.20;99.90;;;;;;5071952;28;20074;-77
2022/12/05 09:52:32;;;;;;;35.47;30.35;;;2.30;99.90;;;;;;5085247;28;20028;-77
2022/12/05 09:55:09;;;;;;;32.72;27.02;;;2.30;99.90;;;;;;5067059;28;20017;-77
2022/12/05 09:57:39;;;;;;;25.55;19.38;;;2.30;99.90;;;;;;5070652;28;20032;-77
2022/12/05 10:00:08;;;;;;;28.23;21.33;;;2.30;99.90;;;;;;5067324;28;20032;-77
2022/12/05 10:02:49;;;;;;;24.02;18.35;;;2.40;99.90;;;;;;5046441;28;20047;-77
2022/12/05 10:05:33;;;;;;;26.98;18.30;;;2.50;99.90;;;;;;5064976;28;20031;-75
2022/12/05 10:08:18;;;;;;;22.48;17.92;;;2.70;99.90;;;;;;5070344;28;20024;-75
2022/12/05 10:11:01;;;;;;;26.98;18.88;;;2.70;99.90;;;;;;5067961;28;20106;-76
2022/12/05 10:13:45;;;;;;;21.90;17.40;;;2.80;99.90;;;;;;5071536;28;20037;-75
2022/12/05 10:16:21;;;;;;;19.80;17.23;;;2.90;99.90;;;;;;5069402;28;20033;-75
2022/12/05 10:19:01;;;;;;;18.52;15.50;;;3.00;99.90;;;;;;5065224;28;20020;-76
2022/12/05 10:21:55;;;;;;;20.67;15.43;;;3.20;99.90;;;;;;5068170;28;20088;-75
2022/12/05 10:24:43;;;;;;;19.02;15.27;;;3.30;99.90;;;;;;5058719;28;20029;-77
2022/12/05 10:27:46;;;;;;;17.67;14.25;;;3.30;99.90;;;;;;5073614;28;20494;-76
2022/12/05 10:30:15;;;;;;;16.52;14.15;;;3.50;99.90;;;;;;5050868;28;20115;-76
2022/12/05 10:33:03;;;;;;;22.92;14.30;;;3.60;99.90;;;;;;5057573;28;20025;-76
2022/12/05 10:35:40;;;;;;;14.88;12.80;;;3.70;99.90;;;;;;5061563;28;20020;-76
2022/12/05 10:38:21;;;;;;;13.95;12.40;;;3.80;99.90;;;;;;5057444;28;20020;-76
2022/12/05 10:40:53;;;;;;;24.30;12.50;;;3.90;99.90;;;;;;5064679;28;20019;-76
2022/12/05 10:43:40;;;;;;;14.35;12.38;;;3.90;99.90;;;;;;5066292;28;20555;-76
2022/12/05 10:46:06;;;;;;;13.75;11.23;;;4.00;99.90;;;;;;5067200;28;20056;-76
2022/12/05 10:48:36;;;;;;;13.25;11.93;;;4.10;99.90;;;;;;5067645;28;20032;-77
2022/12/05 10:51:03;;;;;;;13.88;12.40;;;4.20;99.90;;;;;;5065603;28;20032;-76
2022/12/05 10:53:41;;;;;;;17.05;13.05;;;4.30;99.90;;;;;;5067082;28;20028;-76
2022/12/05 10:56:45;;;;;;;13.18;11.77;;;4.30;99.90;;;;;;5067279;28;20485;-76
2022/12/05 10:59:14;;;;;;;13.07;11.18;;;4.30;99.90;;;;;;5062532;28;20484;-76
2022/12/05 11:01:46;;;;;;;13.85;12.05;;;4.50;99.90;;;;;;5069824;28;20052;-77
2022/12/05 11:04:23;;;;;;;12.48;11.00;;;4.60;99.90;;;;;;5071514;28;20032;-76
2022/12/05 11:07:00;;;;;;;13.32;10.52;;;4.70;99.90;;;;;;5067125;28;20026;-76
2022/12/05 11:09:32;;;;;;;11.30;10.20;;;4.90;99.90;;;;;;5073377;28;20112;-77
2022/12/05 11:12:20;;;;;;;10.85;9.70;;;5.00;99.90;;;;;;5071996;28;20017;-77
2022/12/05 11:15:20;;;;;;;13.75;10.25;;;5.10;99.90;;;;;;5079757;28;20508;-77
2022/12/05 11:17:47;;;;;;;12.27;10.95;;;5.20;99.90;;;;;;5076617;28;20226;-77
2022/12/05 11:20:19;;;;;;;14.00;10.80;;;5.20;99.90;;;;;;5061333;28;20025;-77
2022/12/05 11:22:48;;;;;;;16.10;10.65;;;5.30;99.90;;;;;;5059098;28;20480;-77
2022/12/05 11:25:29;;;;;;;13.68;10.07;;;5.30;99.90;;;;;;5069610;28;20044;-77
2022/12/05 11:27:56;;;;;;;13.70;11.18;;;5.50;99.90;;;;;;5075559;28;20021;-77
2022/12/05 11:30:26;;;;;;;13.18;10.35;;;5.70;99.90;;;;;;5067098;28;20024;-78
2022/12/05 11:33:24;;;;;;;12.15;10.63;;;5.70;99.90;;;;;;5075939;28;20499;-78
2022/12/05 11:35:56;;;;;;;12.32;9.25;;;5.80;99.90;;;;;;5074567;28;20024;-77
2022/12/05 11:38:26;;;;;;;11.25;9.93;;;5.80;99.90;;;;;;5077129;28;20396;-77
2022/12/05 11:40:54;;;;;;;12.77;10.90;;;5.80;99.90;;;;;;5075450;28;20020;-76
2022/12/05 11:43:37;;;;;;;11.23;9.80;;;5.90;99.90;;;;;;5075777;28;20519;-77
2022/12/05 11:46:17;;;;;;;11.30;9.68;;;6.00;99.90;;;;;;5075509;28;20068;-77
2022/12/05 11:48:42;;;;;;;9.80;8.80;;;6.10;99.90;;;;;;5076319;28;20097;-77
2022/12/05 11:51:14;;;;;;;12.82;10.00;;;6.10;99.90;;;;;;5074439;28;20263;-77
2022/12/05 11:53:58;;;;;;;11.65;9.93;;;6.20;99.90;;;;;;5074429;28;20108;-77
2022/12/05 11:56:33;;;;;;;11.30;9.23;;;6.30;99.90;;;;;;5075587;28;20091;-77
2022/12/05 11:59:22;;;;;;;11.18;8.43;;;6.40;99.90;;;;;;5070766;28;20511;-77
2022/12/05 12:02:04;;;;;;;14.43;9.60;;;6.50;99.90;;;;;;5072552;28;20025;-77
2022/12/05 12:04:57;;;;;;;16.20;11.40;;;6.60;99.90;;;;;;5067241;28;20029;-77
2022/12/05 12:07:50;;;;;;;15.95;10.50;;;6.90;99.90;;;;;;5075467;28;20031;-77
2022/12/05 12:10:42;;;;;;;64.68;33.97;;;7.00;99.90;;;;;;5066853;28;20021;-77
2022/12/05 12:13:40;;;;;;;10.65;7.43;;;7.20;99.90;;;;;;5066507;28;20051;-77
2022/12/05 12:16:29;;;;;;;56.38;29.33;;;7.40;99.90;;;;;;5068687;28;20028;-77
2022/12/05 12:19:00;;;;;;;104.38;51.47;;;7.50;99.90;;;;;;5068719;28;20040;-77
2022/12/05 12:21:40;;;;;;;26.63;14.57;;;7.60;99.90;;;;;;5072283;28;20412;-77
2022/12/05 12:24:16;;;;;;;40.00;20.10;;;7.70;99.90;;;;;;5068333;28;20044;-77
2022/12/05 12:26:54;;;;;;;30.33;14.65;;;7.80;99.90;;;;;;5073479;28;20041;-77
2022/12/05 12:29:40;;;;;;;32.03;15.73;;;7.90;99.90;;;;;;5069797;28;20029;-77
2022/12/05 12:32:24;;;;;;;180.02;69.82;;;8.00;99.90;;;;;;5070032;28;20021;-77
2022/12/05 12:35:17;;;;;;;243.27;101.13;;;8.10;99.90;;;;;;5072778;28;20033;-78
2022/12/05 12:37:49;;;;;;;98.97;37.90;;;8.10;99.90;;;;;;5080523;28;20032;-76
2022/12/05 12:40:22;;;;;;;279.20;109.72;;;8.10;99.90;;;;;;5073812;28;20032;-77
2022/12/05 12:43:09;;;;;;;43.63;18.67;;;8.20;99.90;;;;;;5071469;28;20029;-77
2022/12/05 12:45:37;;;;;;;7.95;6.05;;;8.20;99.90;;;;;;5070722;28;20021;-77
2022/12/05 12:48:28;;;;;;;60.17;21.63;;;8.30;99.90;;;;;;5076562;28;20024;-77
2022/12/05 12:50:56;;;;;;;9.65;6.70;;;8.30;99.90;;;;;;5068242;28;20116;-77
2022/12/05 12:53:58;;;;;;;15.63;8.07;;;8.50;99.90;;;;;;5074302;28;20086;-77
2022/12/05 12:56:45;;;;;;;144.77;51.90;;;8.60;99.90;;;;;;5071852;28;20068;-76
2022/12/05 12:59:42;;;;;;;8.63;6.47;;;8.70;99.90;;;;;;5066618;28;20021;-77
2022/12/05 13:02:35;;;;;;;15.85;9.40;;;8.80;99.90;;;;;;5071451;28;20062;-77
2022/12/05 13:05:05;;;;;;;108.40;39.38;;;8.80;99.90;;;;;;5069680;28;20032;-77
2022/12/05 13:07:46;;;;;;;8.70;5.13;;;8.80;99.90;;;;;;5073639;28;20424;-77
2022/12/05 13:10:25;;;;;;;7.93;5.40;;;8.80;99.90;;;;;;5067721;28;20079;-77